Terminal Aerodrome Forecast
Issued by NWS

Home | Current Version | Previous Version | Text Only | Print | Product List | Glossary On
Versions: 1 2 3 4 5 6 7 8 9 10 11 12 13 14 15 16 17 18 19 20 21 22 23 24 25 26 27 28 29 30 31 32 33 34 35
000
FTAK31 PANC 271742
TAFADU
TAF
PADU 271742Z 2718/2818 16015G25KT 5SM -RA BR SCT010 BKN025
     FM271900 19009KT P6SM VCSH SCT015 BKN035
     FM281000 15009KT P6SM FEW015 BKN100=

USA.gov is the U.S. government's official web portal to all federal, state and local government web resources and services.